createdAt,value
2017-06-15T18:58:11.814Z,42.10
2017-06-15T19:00:39.342Z,41.90
2017-06-15T19:03:06.894Z,42.50
2017-06-15T19:05:34.449Z,42.40
2017-06-15T19:08:01.972Z,42.50
2017-06-15T19:10:29.536Z,42.30
2017-06-15T19:12:57.065Z,42.50
2017-06-15T19:15:24.677Z,42.80
2017-06-15T19:17:52.211Z,43.20
2017-06-15T19:20:19.748Z,42.80
2017-06-15T19:22:47.281Z,42.80
2017-06-15T19:25:15.855Z,42.90
2017-06-15T19:27:43.408Z,42.80
2017-06-15T19:30:11.169Z,43.20
2017-06-15T19:32:38.724Z,43.50
2017-06-15T19:35:06.273Z,43.70
2017-06-15T19:37:33.863Z,43.40
2017-06-15T19:40:01.374Z,43.80
2017-06-15T19:42:28.926Z,43.60
2017-06-15T19:44:56.641Z,43.80
2017-06-15T19:47:24.192Z,44.20
2017-06-15T19:49:51.823Z,44.60
2017-06-15T19:52:19.381Z,44.50
2017-06-15T19:54:47.011Z,44.70
2017-06-15T19:57:14.543Z,45.50
2017-06-15T19:59:42.112Z,45.80
2017-06-15T20:02:09.636Z,46.80
2017-06-15T20:04:37.171Z,46.50
2017-06-15T20:07:04.726Z,47.20
2017-06-15T20:09:32.274Z,47.10
2017-06-15T20:11:59.810Z,47.20
2017-06-15T20:14:27.382Z,47.80
2017-06-15T20:16:55.799Z,48.20
2017-06-15T20:19:23.341Z,48.20
2017-06-15T20:21:50.903Z,48.00
2017-06-15T20:24:18.452Z,48.30
2017-06-15T20:26:46.060Z,48.40
2017-06-15T20:29:13.921Z,48.10
2017-06-15T20:31:41.432Z,48.70
2017-06-15T20:34:09.028Z,48.70
2017-06-15T20:36:36.943Z,48.70
2017-06-15T20:39:04.508Z,47.90
2017-06-15T20:41:32.139Z,47.60
2017-06-15T20:43:59.820Z,47.70
2017-06-15T20:46:27.392Z,48.10
2017-06-15T20:48:54.932Z,48.30
2017-06-15T20:51:22.853Z,48.60
2017-06-15T20:53:50.417Z,49.30
2017-06-15T20:56:18.042Z,49.00
2017-06-15T21:01:19.426Z,49.50
2017-06-15T21:03:46.988Z,50.10
2017-06-15T21:06:14.565Z,49.70
2017-06-15T21:08:42.148Z,50.40
2017-06-15T21:11:09.674Z,50.80
2017-06-15T21:13:37.340Z,50.80
2017-06-15T21:16:04.908Z,50.70
2017-06-15T21:18:32.436Z,49.40
2017-06-15T21:20:59.952Z,48.20
2017-06-15T21:23:27.555Z,47.40
2017-06-15T21:25:55.077Z,46.70
2017-06-15T21:28:22.649Z,46.10
2017-06-15T21:30:50.170Z,45.80
2017-06-15T21:33:17.681Z,45.40
2017-06-15T21:35:45.217Z,45.00
2017-06-15T21:38:12.737Z,44.80
2017-06-15T21:40:40.283Z,44.50
2017-06-15T21:43:07.849Z,44.30
2017-06-15T21:45:35.404Z,44.10
2017-06-15T21:48:02.952Z,44.00
2017-06-15T21:50:30.527Z,43.80
2017-06-15T21:52:58.059Z,43.70
2017-06-15T21:55:25.581Z,43.60
2017-06-15T21:57:53.141Z,43.40
2017-06-15T22:00:20.720Z,43.40
2017-06-15T22:02:48.294Z,43.90
2017-06-15T22:05:15.829Z,43.20
2017-06-15T22:07:43.388Z,43.10
2017-06-15T22:10:11.059Z,43.10
2017-06-15T22:12:38.663Z,42.90
2017-06-15T22:15:06.263Z,42.80
2017-06-15T22:17:33.994Z,42.80
2017-06-15T22:20:01.514Z,42.80
2017-06-15T22:22:29.065Z,42.80
2017-06-15T22:24:56.604Z,42.70
2017-06-15T22:27:24.155Z,42.70
2017-06-15T22:29:51.692Z,42.70
2017-06-15T22:32:19.213Z,42.60
2017-06-15T22:34:46.757Z,42.50
2017-06-15T22:37:14.332Z,42.50
2017-06-15T22:39:41.894Z,42.50
2017-06-15T22:42:09.531Z,42.50
2017-06-15T22:44:37.093Z,42.50
2017-06-15T22:47:04.668Z,42.40
2017-06-15T22:49:32.225Z,42.40
2017-06-15T22:51:59.756Z,42.40
2017-06-15T22:54:27.273Z,42.40
2017-06-15T22:56:55.105Z,42.40
2017-06-15T22:59:23.477Z,42.40
2017-06-15T23:01:51.013Z,42.40
2017-06-15T23:04:18.600Z,42.40
2017-06-15T23:06:46.413Z,42.30
2017-06-15T23:09:13.924Z,42.30
2017-06-15T23:11:41.523Z,42.30
2017-06-15T23:14:09.040Z,42.40
2017-06-15T23:16:36.600Z,42.40
2017-06-15T23:19:04.933Z,42.30
2017-06-15T23:21:32.474Z,42.30
2017-06-15T23:24:00.125Z,42.30
2017-06-15T23:26:28.717Z,42.30
2017-06-15T23:28:56.382Z,42.20
2017-06-15T23:31:24.088Z,42.30
2017-06-15T23:33:51.623Z,42.20
2017-06-15T23:36:19.141Z,42.20
2017-06-15T23:38:47.652Z,42.20
2017-06-15T23:41:15.184Z,42.20
2017-06-15T23:43:42.767Z,42.20
2017-06-15T23:46:10.304Z,42.20
2017-06-15T23:48:37.848Z,42.20
2017-06-15T23:51:06.174Z,42.20
2017-06-15T23:53:33.681Z,42.20
2017-06-15T23:56:01.217Z,42.20
2017-06-15T23:58:28.760Z,42.20
